sensor_id;sensor_type;location;lat;lon;timestamp;pressure;altitude;pressure_sealevel;temperature;humidity
75497;BME280;64074;47.540;19.072;2023-08-08T00:01:44;100557.75;;;15.48;66.71
75497;BME280;64074;47.540;19.072;2023-08-08T00:04:49;100551.81;;;15.37;67.82
75497;BME280;64074;47.540;19.072;2023-08-08T00:07:53;100554.53;;;15.37;67.74
75497;BME280;64074;47.540;19.072;2023-08-08T00:10:57;100564.97;;;15.44;67.11
75497;BME280;64074;47.540;19.072;2023-08-08T00:13:59;100566.75;;;15.22;67.85
75497;BME280;64074;47.540;19.072;2023-08-08T00:17:02;100568.19;;;15.46;67.36
75497;BME280;64074;47.540;19.072;2023-08-08T00:20:06;100574.13;;;15.22;67.59
75497;BME280;64074;47.540;19.072;2023-08-08T00:23:10;100571.88;;;15.15;67.94
75497;BME280;64074;47.540;19.072;2023-08-08T00:26:13;100577.19;;;15.46;67.08
75497;BME280;64074;47.540;19.072;2023-08-08T00:29:17;100571.44;;;15.65;65.62
75497;BME280;64074;47.540;19.072;2023-08-08T00:32:20;100571.22;;;15.27;66.46
75497;BME280;64074;47.540;19.072;2023-08-08T00:35:23;100572.88;;;15.71;65.47
75497;BME280;64074;47.540;19.072;2023-08-08T00:38:26;100586.34;;;15.50;66.21
75497;BME280;64074;47.540;19.072;2023-08-08T00:41:30;100580.91;;;15.67;65.52
75497;BME280;64074;47.540;19.072;2023-08-08T00:44:33;100584.09;;;15.61;65.69
75497;BME280;64074;47.540;19.072;2023-08-08T00:47:37;100582.03;;;15.66;65.83
75497;BME280;64074;47.540;19.072;2023-08-08T00:50:42;100576.88;;;15.48;65.90
75497;BME280;64074;47.540;19.072;2023-08-08T00:53:46;100578.94;;;15.51;66.47
75497;BME280;64074;47.540;19.072;2023-08-08T00:56:49;100591.50;;;15.52;66.14
75497;BME280;64074;47.540;19.072;2023-08-08T00:59:51;100588.44;;;15.45;66.40
75497;BME280;64074;47.540;19.072;2023-08-08T01:02:54;100582.31;;;15.22;66.97
75497;BME280;64074;47.540;19.072;2023-08-08T01:06:13;100586.66;;;15.23;67.19
75497;BME280;64074;47.540;19.072;2023-08-08T01:09:39;100584.41;;;15.51;66.05
75497;BME280;64074;47.540;19.072;2023-08-08T01:12:57;100596.31;;;15.46;66.09
75497;BME280;64074;47.540;19.072;2023-08-08T01:16:03;100603.06;;;15.57;65.47
75497;BME280;64074;47.540;19.072;2023-08-08T01:19:08;100596.34;;;15.63;65.33
75497;BME280;64074;47.540;19.072;2023-08-08T01:22:24;100601.97;;;15.58;65.12
75497;BME280;64074;47.540;19.072;2023-08-08T01:25:29;100605.31;;;15.47;65.20
75497;BME280;64074;47.540;19.072;2023-08-08T01:28:33;100604.81;;;15.53;65.49
75497;BME280;64074;47.540;19.072;2023-08-08T01:31:38;100595.97;;;15.30;65.34
75497;BME280;64074;47.540;19.072;2023-08-08T01:34:41;100591.16;;;15.53;64.67
75497;BME280;64074;47.540;19.072;2023-08-08T01:37:49;100582.66;;;15.37;65.92
75497;BME280;64074;47.540;19.072;2023-08-08T01:40:55;100583.78;;;15.45;65.28
75497;BME280;64074;47.540;19.072;2023-08-08T01:44:01;100590.34;;;15.35;66.03
75497;BME280;64074;47.540;19.072;2023-08-08T01:47:05;100595.66;;;15.49;65.86
75497;BME280;64074;47.540;19.072;2023-08-08T01:50:10;100591.34;;;15.39;65.69
75497;BME280;64074;47.540;19.072;2023-08-08T01:53:14;100591.34;;;15.48;65.83
75497;BME280;64074;47.540;19.072;2023-08-08T01:56:18;100591.16;;;15.36;66.29
75497;BME280;64074;47.540;19.072;2023-08-08T01:59:20;100591.34;;;15.39;66.23
75497;BME280;64074;47.540;19.072;2023-08-08T02:02:23;100596.78;;;15.31;66.27
75497;BME280;64074;47.540;19.072;2023-08-08T02:05:28;100596.00;;;15.39;66.63
75497;BME280;64074;47.540;19.072;2023-08-08T02:08:33;100598.41;;;15.41;66.36
75497;BME280;64074;47.540;19.072;2023-08-08T02:11:37;100601.00;;;15.37;66.79
75497;BME280;64074;47.540;19.072;2023-08-08T02:14:40;100603.06;;;15.23;67.48
75497;BME280;64074;47.540;19.072;2023-08-08T02:17:43;100601.59;;;15.34;66.68
75497;BME280;64074;47.540;19.072;2023-08-08T02:20:47;100610.31;;;15.45;67.36
75497;BME280;64074;47.540;19.072;2023-08-08T02:23:51;100613.97;;;15.23;67.22
75497;BME280;64074;47.540;19.072;2023-08-08T02:26:55;100618.66;;;15.39;67.43
75497;BME280;64074;47.540;19.072;2023-08-08T02:29:58;100622.00;;;15.36;67.35
75497;BME280;64074;47.540;19.072;2023-08-08T02:33:01;100630.50;;;15.09;68.42
75497;BME280;64074;47.540;19.072;2023-08-08T02:36:04;100625.19;;;15.04;68.51
75497;BME280;64074;47.540;19.072;2023-08-08T02:39:07;100616.19;;;14.95;68.52
75497;BME280;64074;47.540;19.072;2023-08-08T02:42:09;100617.25;;;14.85;69.20
75497;BME280;64074;47.540;19.072;2023-08-08T02:45:12;100617.94;;;14.99;69.45
75497;BME280;64074;47.540;19.072;2023-08-08T02:48:15;100617.91;;;14.82;69.48
75497;BME280;64074;47.540;19.072;2023-08-08T02:51:19;100624.53;;;14.90;69.76
75497;BME280;64074;47.540;19.072;2023-08-08T02:54:22;100630.59;;;14.87;69.96
75497;BME280;64074;47.540;19.072;2023-08-08T02:57:25;100644.16;;;15.09;69.18
75497;BME280;64074;47.540;19.072;2023-08-08T03:00:30;100637.72;;;15.05;69.35
75497;BME280;64074;47.540;19.072;2023-08-08T03:03:35;100640.59;;;15.08;69.87
75497;BME280;64074;47.540;19.072;2023-08-08T03:06:39;100636.59;;;15.06;69.34
75497;BME280;64074;47.540;19.072;2023-08-08T03:09:44;100636.88;;;14.87;69.82
75497;BME280;64074;47.540;19.072;2023-08-08T03:12:47;100628.66;;;14.78;70.07
75497;BME280;64074;47.540;19.072;2023-08-08T03:15:51;100631.41;;;14.87;69.82
75497;BME280;64074;47.540;19.072;2023-08-08T03:18:55;100636.88;;;14.87;69.79
75497;BME280;64074;47.540;19.072;2023-08-08T03:21:58;100636.75;;;15.01;69.57
75497;BME280;64074;47.540;19.072;2023-08-08T03:25:01;100641.22;;;14.88;69.67
75497;BME280;64074;47.540;19.072;2023-08-08T03:28:06;100649.53;;;14.83;70.00
75497;BME280;64074;47.540;19.072;2023-08-08T03:31:10;100650.81;;;14.86;69.65
75497;BME280;64074;47.540;19.072;2023-08-08T03:34:12;100648.88;;;14.86;69.72
75497;BME280;64074;47.540;19.072;2023-08-08T03:37:16;100661.09;;;14.80;70.03
75497;BME280;64074;47.540;19.072;2023-08-08T03:40:19;100658.34;;;14.71;70.26
75497;BME280;64074;47.540;19.072;2023-08-08T03:43:23;100667.94;;;14.69;70.68
75497;BME280;64074;47.540;19.072;2023-08-08T03:46:26;100675.50;;;14.72;70.60
75497;BME280;64074;47.540;19.072;2023-08-08T03:49:29;100684.03;;;14.79;70.39
75497;BME280;64074;47.540;19.072;2023-08-08T03:52:34;100683.28;;;14.56;71.08
75497;BME280;64074;47.540;19.072;2023-08-08T03:55:43;100684.41;;;14.55;71.26
75497;BME280;64074;47.540;19.072;2023-08-08T03:58:47;100692.72;;;14.81;70.29
75497;BME280;64074;47.540;19.072;2023-08-08T04:01:50;100701.38;;;14.74;70.36
75497;BME280;64074;47.540;19.072;2023-08-08T04:04:54;100707.00;;;14.78;70.38
75497;BME280;64074;47.540;19.072;2023-08-08T04:07:57;100710.75;;;14.91;69.99
75497;BME280;64074;47.540;19.072;2023-08-08T04:11:02;100713.84;;;14.98;69.73
75497;BME280;64074;47.540;19.072;2023-08-08T04:14:06;100714.00;;;15.01;69.50
75497;BME280;64074;47.540;19.072;2023-08-08T04:17:08;100714.13;;;14.88;69.46
75497;BME280;64074;47.540;19.072;2023-08-08T04:20:12;100722.44;;;14.83;69.47
75497;BME280;64074;47.540;19.072;2023-08-08T04:23:16;100723.47;;;14.95;69.22
75497;BME280;64074;47.540;19.072;2023-08-08T04:26:19;100729.59;;;15.01;68.95
75497;BME280;64074;47.540;19.072;2023-08-08T04:29:22;100733.34;;;15.14;68.84
75497;BME280;64074;47.540;19.072;2023-08-08T04:32:25;100731.25;;;15.19;68.49
75497;BME280;64074;47.540;19.072;2023-08-08T04:35:29;100726.44;;;15.16;68.50
75497;BME280;64074;47.540;19.072;2023-08-08T04:38:32;100734.75;;;15.11;68.74
75497;BME280;64074;47.540;19.072;2023-08-08T04:41:35;100729.19;;;15.25;68.29
75497;BME280;64074;47.540;19.072;2023-08-08T04:44:38;100733.78;;;15.07;68.24
75497;BME280;64074;47.540;19.072;2023-08-08T04:47:40;100737.69;;;15.23;67.21
75497;BME280;64074;47.540;19.072;2023-08-08T04:50:46;100744.22;;;15.05;68.13
75497;BME280;64074;47.540;19.072;2023-08-08T04:53:48;100737.56;;;15.28;67.08
75497;BME280;64074;47.540;19.072;2023-08-08T04:56:51;100739.31;;;15.24;66.89
75497;BME280;64074;47.540;19.072;2023-08-08T04:59:54;100742.84;;;15.25;66.73
75497;BME280;64074;47.540;19.072;2023-08-08T05:02:57;100736.00;;;15.45;66.72
75497;BME280;64074;47.540;19.072;2023-08-08T05:06:00;100743.66;;;15.34;66.13
75497;BME280;64074;47.540;19.072;2023-08-08T05:09:05;100748.81;;;15.35;66.79
75497;BME280;64074;47.540;19.072;2023-08-08T05:12:07;100739.78;;;15.26;66.02
75497;BME280;64074;47.540;19.072;2023-08-08T05:15:10;100740.66;;;15.53;65.98
75497;BME280;64074;47.540;19.072;2023-08-08T05:18:14;100750.78;;;15.52;65.67
75497;BME280;64074;47.540;19.072;2023-08-08T05:21:17;100746.28;;;15.56;65.46
75497;BME280;64074;47.540;19.072;2023-08-08T05:24:31;100747.41;;;15.55;65.19
75497;BME280;64074;47.540;19.072;2023-08-08T05:28:10;100752.75;;;15.60;64.98
75497;BME280;64074;47.540;19.072;2023-08-08T05:31:12;100752.47;;;15.71;64.54
75497;BME280;64074;47.540;19.072;2023-08-08T05:34:16;100758.59;;;15.85;64.63
75497;BME280;64074;47.540;19.072;2023-08-08T05:37:18;100760.69;;;15.79;64.92
75497;BME280;64074;47.540;19.072;2023-08-08T05:40:21;100763.09;;;15.63;64.11
75497;BME280;64074;47.540;19.072;2023-08-08T05:43:24;100756.66;;;15.77;64.24
75497;BME280;64074;47.540;19.072;2023-08-08T05:46:29;100757.16;;;15.79;64.03
75497;BME280;64074;47.540;19.072;2023-08-08T05:49:33;100760.88;;;15.91;63.93
75497;BME280;64074;47.540;19.072;2023-08-08T05:52:36;100763.28;;;15.93;63.87
75497;BME280;64074;47.540;19.072;2023-08-08T05:55:41;100762.47;;;16.01;63.93
75497;BME280;64074;47.540;19.072;2023-08-08T05:58:45;100768.91;;;15.96;63.00
75497;BME280;64074;47.540;19.072;2023-08-08T06:01:48;100775.66;;;15.99;63.49
75497;BME280;64074;47.540;19.072;2023-08-08T06:04:51;100763.44;;;16.22;62.86
75497;BME280;64074;47.540;19.072;2023-08-08T06:07:54;100756.84;;;16.41;62.18
75497;BME280;64074;47.540;19.072;2023-08-08T06:10:58;100762.47;;;16.27;61.62
75497;BME280;64074;47.540;19.072;2023-08-08T06:14:01;100759.25;;;16.42;61.64
75497;BME280;64074;47.540;19.072;2023-08-08T06:17:04;100765.03;;;16.49;61.62
75497;BME280;64074;47.540;19.072;2023-08-08T06:20:07;100765.69;;;16.46;61.88
75497;BME280;64074;47.540;19.072;2023-08-08T06:23:11;100780.44;;;16.88;61.12
75497;BME280;64074;47.540;19.072;2023-08-08T06:26:15;100775.31;;;16.87;60.49
75497;BME280;64074;47.540;19.072;2023-08-08T06:29:19;100773.69;;;16.77;60.05
75497;BME280;64074;47.540;19.072;2023-08-08T06:32:22;100774.13;;;16.97;59.75
75497;BME280;64074;47.540;19.072;2023-08-08T06:35:25;100781.22;;;16.98;59.88
75497;BME280;64074;47.540;19.072;2023-08-08T06:38:29;100788.25;;;17.16;58.85
75497;BME280;64074;47.540;19.072;2023-08-08T06:41:36;100780.91;;;17.37;58.97
75497;BME280;64074;47.540;19.072;2023-08-08T06:44:44;100784.41;;;17.46;58.11
75497;BME280;64074;47.540;19.072;2023-08-08T06:47:47;100787.34;;;17.41;58.35
75497;BME280;64074;47.540;19.072;2023-08-08T06:50:51;100796.22;;;17.38;58.39
75497;BME280;64074;47.540;19.072;2023-08-08T06:53:55;100802.47;;;17.47;58.90
75497;BME280;64074;47.540;19.072;2023-08-08T06:56:58;100801.34;;;17.78;58.18
75497;BME280;64074;47.540;19.072;2023-08-08T07:00:06;100793.31;;;17.73;58.17
75497;BME280;64074;47.540;19.072;2023-08-08T07:03:11;100812.41;;;17.90;57.78
75497;BME280;64074;47.540;19.072;2023-08-08T07:06:17;100801.78;;;17.89;57.45
75497;BME280;64074;47.540;19.072;2023-08-08T07:09:25;100809.31;;;17.71;58.06
75497;BME280;64074;47.540;19.072;2023-08-08T07:12:29;100803.75;;;17.79;57.70
75497;BME280;64074;47.540;19.072;2023-08-08T07:15:32;100803.09;;;17.82;57.68
75497;BME280;64074;47.540;19.072;2023-08-08T07:18:36;100802.63;;;17.80;56.81
75497;BME280;64074;47.540;19.072;2023-08-08T07:21:40;100800.16;;;18.08;56.13
75497;BME280;64074;47.540;19.072;2023-08-08T07:24:44;100801.38;;;18.20;55.78
75497;BME280;64074;47.540;19.072;2023-08-08T07:27:47;100804.13;;;18.20;55.63
75497;BME280;64074;47.540;19.072;2023-08-08T07:30:51;100812.94;;;18.04;55.73
75497;BME280;64074;47.540;19.072;2023-08-08T07:33:54;100794.50;;;17.93;55.09
75497;BME280;64074;47.540;19.072;2023-08-08T07:36:57;100797.25;;;18.13;55.31
75497;BME280;64074;47.540;19.072;2023-08-08T07:40:00;100808.22;;;18.34;55.20
75497;BME280;64074;47.540;19.072;2023-08-08T07:43:03;100803.13;;;18.24;54.64
75497;BME280;64074;47.540;19.072;2023-08-08T07:46:06;100805.66;;;18.29;55.32
75497;BME280;64074;47.540;19.072;2023-08-08T07:49:09;100810.66;;;18.48;54.82
75497;BME280;64074;47.540;19.072;2023-08-08T07:52:12;100816.50;;;18.67;54.11
75497;BME280;64074;47.540;19.072;2023-08-08T07:55:15;100810.56;;;18.78;54.08
75497;BME280;64074;47.540;19.072;2023-08-08T07:58:18;100817.03;;;18.94;54.00
75497;BME280;64074;47.540;19.072;2023-08-08T08:01:22;100811.88;;;18.92;52.90
75497;BME280;64074;47.540;19.072;2023-08-08T08:04:29;100812.19;;;18.79;52.77
75497;BME280;64074;47.540;19.072;2023-08-08T08:07:32;100805.72;;;19.08;52.56
75497;BME280;64074;47.540;19.072;2023-08-08T08:10:36;100802.19;;;19.31;51.96
75497;BME280;64074;47.540;19.072;2023-08-08T08:13:39;100805.75;;;19.20;51.12
75497;BME280;64074;47.540;19.072;2023-08-08T08:16:44;100808.63;;;19.48;51.00
75497;BME280;64074;47.540;19.072;2023-08-08T08:19:49;100807.97;;;19.75;50.53
75497;BME280;64074;47.540;19.072;2023-08-08T08:22:52;100797.75;;;19.88;48.77
75497;BME280;64074;47.540;19.072;2023-08-08T08:25:55;100805.69;;;19.65;49.17
75497;BME280;64074;47.540;19.072;2023-08-08T08:28:59;100806.69;;;19.97;47.95
75497;BME280;64074;47.540;19.072;2023-08-08T08:32:02;100813.47;;;19.87;47.15
75497;BME280;64074;47.540;19.072;2023-08-08T08:35:06;100806.16;;;20.19;47.14
75497;BME280;64074;47.540;19.072;2023-08-08T08:38:09;100809.09;;;19.98;47.28
75497;BME280;64074;47.540;19.072;2023-08-08T08:41:17;100813.00;;;20.38;46.53
75497;BME280;64074;47.540;19.072;2023-08-08T08:44:22;100802.50;;;20.55;45.71
75497;BME280;64074;47.540;19.072;2023-08-08T08:47:28;100809.47;;;20.25;46.44
75497;BME280;64074;47.540;19.072;2023-08-08T08:50:34;100818.13;;;20.11;47.04
75497;BME280;64074;47.540;19.072;2023-08-08T08:53:41;100814.06;;;20.33;46.97
75497;BME280;64074;47.540;19.072;2023-08-08T08:56:49;100819.59;;;20.21;47.36
75497;BME280;64074;47.540;19.072;2023-08-08T08:59:53;100825.13;;;20.09;47.53
75497;BME280;64074;47.540;19.072;2023-08-08T09:02:56;100821.22;;;20.10;47.25
75497;BME280;64074;47.540;19.072;2023-08-08T09:05:59;100826.44;;;19.87;46.67
75497;BME280;64074;47.540;19.072;2023-08-08T09:09:03;100827.47;;;19.70;47.79
75497;BME280;64074;47.540;19.072;2023-08-08T09:12:18;100821.63;;;20.24;47.79
75497;BME280;64074;47.540;19.072;2023-08-08T09:15:21;100812.69;;;20.27;47.97
75497;BME280;64074;47.540;19.072;2023-08-08T09:18:24;100824.59;;;20.31;47.63
75497;BME280;64074;47.540;19.072;2023-08-08T09:21:28;100829.31;;;20.43;47.33
75497;BME280;64074;47.540;19.072;2023-08-08T09:24:31;100831.94;;;20.27;47.25
75497;BME280;64074;47.540;19.072;2023-08-08T09:27:34;100835.72;;;20.47;47.28
75497;BME280;64074;47.540;19.072;2023-08-08T09:30:38;100832.66;;;20.64;46.44
75497;BME280;64074;47.540;19.072;2023-08-08T09:33:42;100831.44;;;20.77;46.85
75497;BME280;64074;47.540;19.072;2023-08-08T09:36:47;100837.50;;;20.55;47.15
75497;BME280;64074;47.540;19.072;2023-08-08T09:39:57;100833.16;;;20.54;46.39
75497;BME280;64074;47.540;19.072;2023-08-08T09:43:00;100836.03;;;20.57;46.28
75497;BME280;64074;47.540;19.072;2023-08-08T09:46:04;100827.00;;;20.73;45.94
75497;BME280;64074;47.540;19.072;2023-08-08T09:49:09;100834.19;;;20.62;45.59
75497;BME280;64074;47.540;19.072;2023-08-08T09:52:13;100829.16;;;20.51;46.19
75497;BME280;64074;47.540;19.072;2023-08-08T09:55:18;100840.41;;;20.46;45.38
75497;BME280;64074;47.540;19.072;2023-08-08T09:58:26;100825.97;;;20.93;43.39
75497;BME280;64074;47.540;19.072;2023-08-08T10:01:29;100825.31;;;21.12;44.35
75497;BME280;64074;47.540;19.072;2023-08-08T10:04:33;100821.31;;;20.81;44.93
75497;BME280;64074;47.540;19.072;2023-08-08T10:07:36;100826.19;;;21.16;44.62
75497;BME280;64074;47.540;19.072;2023-08-08T10:10:39;100835.72;;;21.18;44.53
75497;BME280;64074;47.540;19.072;2023-08-08T10:13:47;100826.91;;;21.29;43.42
75497;BME280;64074;47.540;19.072;2023-08-08T10:16:52;100812.44;;;21.32;43.39
75497;BME280;64074;47.540;19.072;2023-08-08T10:19:56;100804.72;;;21.88;42.61
75497;BME280;64074;47.540;19.072;2023-08-08T10:23:02;100801.16;;;21.88;42.56
75497;BME280;64074;47.540;19.072;2023-08-08T10:26:17;100810.72;;;21.59;42.04
75497;BME280;64074;47.540;19.072;2023-08-08T10:29:20;100804.94;;;21.99;41.39
75497;BME280;64074;47.540;19.072;2023-08-08T10:32:24;100799.69;;;21.27;41.01
75497;BME280;64074;47.540;19.072;2023-08-08T10:35:36;100794.53;;;21.92;41.22
75497;BME280;64074;47.540;19.072;2023-08-08T10:38:45;100791.50;;;22.32;40.24
75497;BME280;64074;47.540;19.072;2023-08-08T10:41:50;100798.66;;;22.18;38.76
75497;BME280;64074;47.540;19.072;2023-08-08T10:44:57;100786.81;;;22.56;38.10
75497;BME280;64074;47.540;19.072;2023-08-08T10:48:07;100782.91;;;22.57;37.79
75497;BME280;64074;47.540;19.072;2023-08-08T10:51:14;100792.50;;;22.82;38.33
75497;BME280;64074;47.540;19.072;2023-08-08T10:54:25;100797.44;;;22.15;39.09
75497;BME280;64074;47.540;19.072;2023-08-08T10:57:34;100783.75;;;22.61;39.00
75497;BME280;64074;47.540;19.072;2023-08-08T11:00:38;100781.38;;;22.40;39.69
75497;BME280;64074;47.540;19.072;2023-08-08T11:03:45;100783.88;;;22.87;39.22
75497;BME280;64074;47.540;19.072;2023-08-08T11:06:50;100783.09;;;23.10;39.17
75497;BME280;64074;47.540;19.072;2023-08-08T11:09:52;100780.53;;;23.47;39.07
75497;BME280;64074;47.540;19.072;2023-08-08T11:13:03;100772.91;;;23.40;39.33
75497;BME280;64074;47.540;19.072;2023-08-08T11:16:07;100787.25;;;23.23;38.15
75497;BME280;64074;47.540;19.072;2023-08-08T11:19:10;100777.66;;;23.92;37.44
75497;BME280;64074;47.540;19.072;2023-08-08T11:22:14;100788.44;;;23.22;37.92
75497;BME280;64074;47.540;19.072;2023-08-08T11:25:17;100780.84;;;23.42;36.97
75497;BME280;64074;47.540;19.072;2023-08-08T11:28:20;100778.41;;;23.89;36.75
75497;BME280;64074;47.540;19.072;2023-08-08T11:31:24;100783.34;;;24.03;37.31
75497;BME280;64074;47.540;19.072;2023-08-08T11:34:30;100779.13;;;23.83;36.44
75497;BME280;64074;47.540;19.072;2023-08-08T11:37:35;100779.13;;;23.83;37.02
75497;BME280;64074;47.540;19.072;2023-08-08T11:40:39;100786.47;;;22.38;38.39
75497;BME280;64074;47.540;19.072;2023-08-08T11:43:43;100777.78;;;23.01;37.70
75497;BME280;64074;47.540;19.072;2023-08-08T11:46:47;100775.78;;;23.47;36.50
75497;BME280;64074;47.540;19.072;2023-08-08T11:49:51;100769.78;;;23.42;37.35
75497;BME280;64074;47.540;19.072;2023-08-08T11:52:55;100763.69;;;24.12;35.86
75497;BME280;64074;47.540;19.072;2023-08-08T11:55:59;100765.59;;;23.78;36.71
75497;BME280;64074;47.540;19.072;2023-08-08T11:59:03;100766.63;;;23.66;36.54
75497;BME280;64074;47.540;19.072;2023-08-08T12:02:06;100758.97;;;24.46;36.17
75497;BME280;64074;47.540;19.072;2023-08-08T12:05:12;100752.53;;;24.75;35.88
75497;BME280;64074;47.540;19.072;2023-08-08T12:08:19;100751.47;;;24.50;35.05
75497;BME280;64074;47.540;19.072;2023-08-08T12:11:22;100743.59;;;24.22;35.98
75497;BME280;64074;47.540;19.072;2023-08-08T12:14:29;100745.81;;;24.76;33.65
75497;BME280;64074;47.540;19.072;2023-08-08T12:17:33;100733.28;;;26.03;31.51
75497;BME280;64074;47.540;19.072;2023-08-08T12:20:37;100742.19;;;26.48;30.98
75497;BME280;64074;47.540;19.072;2023-08-08T12:23:40;100738.66;;;26.90;30.44
75497;BME280;64074;47.540;19.072;2023-08-08T12:26:44;100745.25;;;24.60;32.02
75497;BME280;64074;47.540;19.072;2023-08-08T12:29:47;100739.06;;;25.18;31.81
75497;BME280;64074;47.540;19.072;2023-08-08T12:32:49;100729.16;;;27.34;28.98
75497;BME280;64074;47.540;19.072;2023-08-08T12:35:53;100731.91;;;26.98;28.91
75497;BME280;64074;47.540;19.072;2023-08-08T12:38:57;100736.66;;;27.58;28.30
75497;BME280;64074;47.540;19.072;2023-08-08T12:42:01;100731.91;;;26.80;29.50
75497;BME280;64074;47.540;19.072;2023-08-08T12:45:05;100729.47;;;25.05;32.21
75497;BME280;64074;47.540;19.072;2023-08-08T12:48:08;100731.00;;;24.58;33.19
75497;BME280;64074;47.540;19.072;2023-08-08T12:51:11;100724.88;;;24.42;34.30
75497;BME280;64074;47.540;19.072;2023-08-08T12:54:13;100720.56;;;25.36;32.74
75497;BME280;64074;47.540;19.072;2023-08-08T12:57:16;100714.97;;;25.29;32.34
75497;BME280;64074;47.540;19.072;2023-08-08T13:00:19;100721.31;;;24.45;33.77
75497;BME280;64074;47.540;19.072;2023-08-08T13:03:22;100727.50;;;23.45;35.05
75497;BME280;64074;47.540;19.072;2023-08-08T13:06:25;100717.63;;;24.00;35.10
75497;BME280;64074;47.540;19.072;2023-08-08T13:09:29;100722.16;;;24.15;35.28
75497;BME280;64074;47.540;19.072;2023-08-08T13:12:33;100725.53;;;24.02;35.71
75497;BME280;64074;47.540;19.072;2023-08-08T13:15:36;100719.72;;;23.01;36.62
75497;BME280;64074;47.540;19.072;2023-08-08T13:18:39;100734.75;;;22.58;37.25
75497;BME280;64074;47.540;19.072;2023-08-08T13:21:42;100738.91;;;22.71;37.58
75497;BME280;64074;47.540;19.072;2023-08-08T13:24:46;100741.81;;;22.36;39.88
75497;BME280;64074;47.540;19.072;2023-08-08T13:27:49;100756.50;;;21.66;39.99
75497;BME280;64074;47.540;19.072;2023-08-08T13:30:52;100749.81;;;21.67;39.92
75497;BME280;64074;47.540;19.072;2023-08-08T13:33:56;100757.41;;;20.92;40.70
75497;BME280;64074;47.540;19.072;2023-08-08T13:37:00;100761.38;;;20.78;41.84
75497;BME280;64074;47.540;19.072;2023-08-08T13:40:04;100759.06;;;20.37;42.32
75497;BME280;64074;47.540;19.072;2023-08-08T13:43:07;100758.03;;;20.85;42.82
75497;BME280;64074;47.540;19.072;2023-08-08T13:46:11;100752.53;;;21.01;42.37
75497;BME280;64074;47.540;19.072;2023-08-08T13:49:15;100756.44;;;21.31;41.71
75497;BME280;64074;47.540;19.072;2023-08-08T13:52:18;100751.56;;;20.93;43.01
75497;BME280;64074;47.540;19.072;2023-08-08T13:55:21;100750.50;;;20.82;43.63
75497;BME280;64074;47.540;19.072;2023-08-08T13:58:23;100751.00;;;21.03;43.34
75497;BME280;64074;47.540;19.072;2023-08-08T14:01:27;100752.09;;;21.30;43.50
75497;BME280;64074;47.540;19.072;2023-08-08T14:04:30;100763.47;;;21.60;42.99
75497;BME280;64074;47.540;19.072;2023-08-08T14:07:33;100750.91;;;21.47;43.28
75497;BME280;64074;47.540;19.072;2023-08-08T14:10:37;100750.94;;;21.31;42.96
75497;BME280;64074;47.540;19.072;2023-08-08T14:13:40;100750.81;;;21.59;42.81
75497;BME280;64074;47.540;19.072;2023-08-08T14:16:43;100753.66;;;21.63;42.81
75497;BME280;64074;47.540;19.072;2023-08-08T14:19:45;100756.53;;;21.86;42.40
75497;BME280;64074;47.540;19.072;2023-08-08T14:22:49;100739.69;;;21.91;42.26
75497;BME280;64074;47.540;19.072;2023-08-08T14:25:52;100748.59;;;22.19;42.17
75497;BME280;64074;47.540;19.072;2023-08-08T14:28:57;100740.81;;;21.70;43.51
75497;BME280;64074;47.540;19.072;2023-08-08T14:31:59;100738.91;;;22.29;42.16
75497;BME280;64074;47.540;19.072;2023-08-08T14:35:04;100738.59;;;22.53;42.45
75497;BME280;64074;47.540;19.072;2023-08-08T14:38:07;100730.94;;;22.66;41.90
75497;BME280;64074;47.540;19.072;2023-08-08T14:41:11;100730.66;;;22.94;41.34
75497;BME280;64074;47.540;19.072;2023-08-08T14:44:14;100727.72;;;23.06;41.12
75497;BME280;64074;47.540;19.072;2023-08-08T14:47:18;100729.59;;;23.02;39.93
75497;BME280;64074;47.540;19.072;2023-08-08T14:50:21;100719.72;;;23.27;41.27
75497;BME280;64074;47.540;19.072;2023-08-08T14:53:25;100721.22;;;23.74;38.07
75497;BME280;64074;47.540;19.072;2023-08-08T14:56:27;100715.97;;;23.66;37.27
75497;BME280;64074;47.540;19.072;2023-08-08T14:59:31;100713.09;;;23.85;37.18
75497;BME280;64074;47.540;19.072;2023-08-08T15:02:34;100709.25;;;23.97;37.97
75497;BME280;64074;47.540;19.072;2023-08-08T15:05:38;100710.25;;;24.85;37.84
75497;BME280;64074;47.540;19.072;2023-08-08T15:08:42;100714.34;;;24.99;36.30
75497;BME280;64074;47.540;19.072;2023-08-08T15:11:45;100709.84;;;24.83;36.75
75497;BME280;64074;47.540;19.072;2023-08-08T15:14:48;100704.13;;;24.66;36.49
75497;BME280;64074;47.540;19.072;2023-08-08T15:17:51;100701.41;;;24.02;36.10
75497;BME280;64074;47.540;19.072;2023-08-08T15:20:54;100697.63;;;24.17;36.31
75497;BME280;64074;47.540;19.072;2023-08-08T15:23:57;100688.75;;;24.35;36.79
75497;BME280;64074;47.540;19.072;2023-08-08T15:27:00;100694.69;;;24.33;36.24
75497;BME280;64074;47.540;19.072;2023-08-08T15:30:05;100684.78;;;24.02;37.22
75497;BME280;64074;47.540;19.072;2023-08-08T15:33:09;100685.97;;;24.31;38.30
75497;BME280;64074;47.540;19.072;2023-08-08T15:36:12;100688.59;;;24.24;37.23
75497;BME280;64074;47.540;19.072;2023-08-08T15:39:15;100682.44;;;24.34;36.21
75497;BME280;64074;47.540;19.072;2023-08-08T15:42:19;100669.47;;;24.45;36.85
75497;BME280;64074;47.540;19.072;2023-08-08T15:45:22;100665.53;;;24.50;36.92
75497;BME280;64074;47.540;19.072;2023-08-08T15:48:25;100680.09;;;23.73;38.00
75497;BME280;64074;47.540;19.072;2023-08-08T15:51:27;100672.03;;;23.34;38.85